Time;durP1;ratioP1;P1;durP2;ratioP2;P2;SDS_P1;SDS_P2;PMS_P1;PMS_P2;Temp;Humidity;BMP_temperature;BMP_pressure;BME280_temperature;BME280_humidity;BME280_pressure;Samples;Min_cycle;Max_cycle;Signal;HPM_P1;HPM_P2
2023/04/16 00:00:55;;;;;;;;;;;;;;;9.96;77.80;100120.25;5354206;32;34526;-63
2023/04/16 00:03:57;;;;;;;;;;;;;;;9.97;77.53;100127.19;5350510;32;33740;-63
2023/04/16 00:07:00;;;;;;;;;;;;;;;9.89;78.64;100127.50;5370837;32;32682;-78
2023/04/16 00:10:02;;;;;;;;;;;;;;;10.50;76.16;100121.53;5349870;32;33571;-64
2023/04/16 00:13:03;;;;;;;;;;;;;;;10.26;75.10;100126.03;5361418;32;33488;-64
2023/04/16 00:16:06;;;;;;;;;;;;;;;10.26;75.75;100123.41;5357752;32;34469;-63
2023/04/16 00:19:08;;;;;;;;;;;;;;;9.90;77.07;100131.84;5372047;32;34620;-63
2023/04/16 00:22:10;;;;;;;;;;;;;;;10.61;74.66;100119.25;5362299;32;44784;-75
2023/04/16 00:25:12;;;;;;;;;;;;;;;10.85;72.86;100130.50;5361670;32;34287;-77
2023/04/16 00:28:14;;;;;;;;;;;;;;;10.10;75.84;100127.53;5373283;32;34333;-64
2023/04/16 00:31:16;;;;;;;;;;;;;;;9.78;78.04;100127.94;5341367;32;34140;-65
2023/04/16 00:34:18;;;;;;;;;;;;;;;9.30;79.65;100127.22;5376516;32;33208;-76
2023/04/16 00:37:20;;;;;;;;;;;;;;;10.09;77.13;100133.72;5355110;32;35292;-72
2023/04/16 00:40:22;;;;;;;;;;;;;;;9.72;77.25;100122.94;5368399;32;33752;-64
2023/04/16 00:43:24;;;;;;;;;;;;;;;8.80;81.18;100120.31;5364886;32;34199;-76
2023/04/16 00:46:26;;;;;;;;;;;;;;;9.70;78.78;100132.63;5352970;32;33791;-76
2023/04/16 00:49:28;;;;;;;;;;;;;;;9.06;81.43;100129.84;5372634;32;34184;-64
2023/04/16 00:52:30;;;;;;;;;;;;;;;8.90;81.16;100131.34;5362393;32;34972;-76
2023/04/16 00:55:32;;;;;;;;;;;;;;;9.44;78.18;100112.66;5370560;32;34216;-76
2023/04/16 00:58:34;;;;;;;;;;;;;;;9.53;78.53;100124.56;5362088;32;34348;-77
2023/04/16 01:01:36;;;;;;;;;;;;;;;9.19;80.54;100122.37;5364028;32;33314;-76
2023/04/16 01:04:38;;;;;;;;;;;;;;;8.90;81.29;100120.84;5367846;32;33924;-63
2023/04/16 01:07:40;;;;;;;;;;;;;;;9.16;80.29;100122.50;5355257;32;46342;-75
2023/04/16 01:10:42;;;;;;;;;;;;;;;9.00;80.20;100123.97;5373715;32;33658;-63
2023/04/16 01:13:44;;;;;;;;;;;;;;;8.92;82.12;100134.75;5364789;32;35418;-63
2023/04/16 01:16:46;;;;;;;;;;;;;;;8.39;84.31;100145.34;5370245;32;33520;-76
2023/04/16 01:19:48;;;;;;;;;;;;;;;8.82;83.09;100143.84;5366726;32;34527;-63
2023/04/16 01:22:49;;;;;;;;;;;;;;;9.23;82.30;100144.97;5360644;32;34048;-63
2023/04/16 01:25:51;;;;;;;;;;;;;;;9.11;80.54;100142.78;5356346;32;34557;-64
2023/04/16 01:28:53;;;;;;;;;;;;;;;8.95;82.13;100140.75;5349288;32;34589;-72
2023/04/16 01:31:55;;;;;;;;;;;;;;;8.87;82.59;100147.16;5338319;32;34393;-64
2023/04/16 01:34:57;;;;;;;;;;;;;;;9.36;80.86;100134.88;5364561;32;34470;-64
2023/04/16 01:37:59;;;;;;;;;;;;;;;9.70;77.90;100134.41;5373116;32;34012;-65
2023/04/16 01:41:01;;;;;;;;;;;;;;;9.28;79.66;100137.78;5367639;32;33490;-71
2023/04/16 01:44:02;;;;;;;;;;;;;;;10.31;75.46;100139.84;5366243;32;33943;-65
2023/04/16 01:47:04;;;;;;;;;;;;;;;9.43;77.70;100131.94;5367146;32;34439;-75
2023/04/16 01:50:06;;;;;;;;;;;;;;;8.60;81.76;100151.59;5363711;32;33821;-63
2023/04/16 01:53:08;;;;;;;;;;;;;;;8.93;80.25;100142.53;5360334;32;34849;-65
2023/04/16 01:56:10;;;;;;;;;;;;;;;8.65;80.90;100145.31;5348003;32;45207;-75
2023/04/16 01:59:12;;;;;;;;;;;;;;;8.64;82.47;100146.22;5359571;32;34049;-64
2023/04/16 02:02:14;;;;;;;;;;;;;;;8.88;81.22;100144.47;5347985;32;35187;-61
2023/04/16 02:05:17;;;;;;;;;;;;;;;8.81;79.94;100142.13;5355943;32;34287;-65
2023/04/16 02:08:18;;;;;;;;;;;;;;;9.06;79.74;100132.47;5361994;32;35131;-63
2023/04/16 02:11:20;;;;;;;;;;;;;;;9.14;79.82;100143.53;5359419;32;33574;-64
2023/04/16 02:14:24;;;;;;;;;;;;;;;8.62;80.90;100153.25;5374870;32;33078;-77
2023/04/16 02:17:26;;;;;;;;;;;;;;;8.59;82.17;100165.63;5354231;32;33922;-73
2023/04/16 02:20:28;;;;;;;;;;;;;;;8.77;82.06;100151.88;5374538;32;34183;-73
2023/04/16 02:23:30;;;;;;;;;;;;;;;8.35;83.23;100162.91;5349620;32;34405;-73
2023/04/16 02:26:32;;;;;;;;;;;;;;;8.80;81.27;100166.63;5358598;32;33773;-77
2023/04/16 02:29:34;;;;;;;;;;;;;;;8.93;80.25;100163.50;5364147;32;34446;-65
2023/04/16 02:32:36;;;;;;;;;;;;;;;9.19;78.58;100148.59;5349817;32;33400;-63
2023/04/16 02:35:38;;;;;;;;;;;;;;;9.12;78.94;100157.59;5371448;32;33533;-64
2023/04/16 02:38:44;;;;;;;;;;;;;;;9.43;77.34;100163.44;5362273;32;45546;-65
2023/04/16 02:41:46;;;;;;;;;;;;;;;10.16;74.91;100156.19;5366209;32;33801;-63
2023/04/16 02:44:47;;;;;;;;;;;;;;;9.69;75.85;100165.03;5361964;32;33957;-64
2023/04/16 02:47:49;;;;;;;;;;;;;;;10.19;73.90;100164.81;5355255;32;34022;-64
2023/04/16 02:50:51;;;;;;;;;;;;;;;9.72;74.86;100151.81;5372546;32;34059;-76
2023/04/16 02:53:53;;;;;;;;;;;;;;;9.70;75.35;100160.66;5359553;32;33842;-64
2023/04/16 02:56:55;;;;;;;;;;;;;;;8.83;78.96;100149.03;5368926;32;34158;-63
2023/04/16 02:59:57;;;;;;;;;;;;;;;9.14;78.22;100155.78;5365111;32;33422;-63
2023/04/16 03:02:59;;;;;;;;;;;;;;;8.53;80.34;100161.44;5374711;32;34239;-63
2023/04/16 03:06:01;;;;;;;;;;;;;;;8.95;79.74;100161.72;5363430;32;34512;-65
2023/04/16 03:09:03;;;;;;;;;;;;;;;8.82;80.56;100160.44;5361038;32;33281;-76
2023/04/16 03:12:05;;;;;;;;;;;;;;;10.04;74.12;100155.75;5367128;32;32779;-64
2023/04/16 03:15:07;;;;;;;;;;;;;;;9.84;73.74;100162.72;5363632;32;33654;-64
2023/04/16 03:18:09;;;;;;;;;;;;;;;9.32;75.18;100172.59;5371287;32;33886;-76
2023/04/16 03:21:11;;;;;;;;;;;;;;;9.70;74.46;100168.53;5366326;32;44626;-77
2023/04/16 03:24:13;;;;;;;;;;;;;;;8.83;78.55;100177.03;5359668;32;33911;-77
2023/04/16 03:27:15;;;;;;;;;;;;;;;8.97;79.26;100172.13;5351305;32;34054;-76
2023/04/16 03:30:17;;;;;;;;;;;;;;;9.47;76.79;100174.66;5345950;32;34460;-63
2023/04/16 03:33:19;;;;;;;;;;;;;;;9.29;76.36;100185.84;5363519;32;34808;-64
2023/04/16 03:36:22;;;;;;;;;;;;;;;9.42;76.48;100195.81;5364422;32;33485;-63
2023/04/16 03:39:24;;;;;;;;;;;;;;;9.52;75.66;100205.97;5376303;32;33212;-78
2023/04/16 03:42:26;;;;;;;;;;;;;;;9.09;77.24;100204.94;5360449;32;34307;-76
2023/04/16 03:45:27;;;;;;;;;;;;;;;8.98;78.19;100217.56;5376004;32;34028;-63
2023/04/16 03:48:29;;;;;;;;;;;;;;;8.75;78.20;100226.19;5360121;32;33954;-64
2023/04/16 03:51:31;;;;;;;;;;;;;;;8.52;79.98;100224.38;5357394;32;33259;-65
2023/04/16 03:54:33;;;;;;;;;;;;;;;8.65;78.68;100231.75;5360888;32;34389;-77
2023/04/16 03:57:35;;;;;;;;;;;;;;;8.17;80.04;100230.69;5363527;32;33327;-65
2023/04/16 04:00:39;;;;;;;;;;;;;;;8.15;81.14;100239.47;5378894;32;34512;-63
2023/04/16 04:03:41;;;;;;;;;;;;;;;8.55;80.54;100240.81;5362928;32;44809;-75
2023/04/16 04:06:44;;;;;;;;;;;;;;;8.93;78.27;100236.06;5359267;32;35296;-63
2023/04/16 04:09:46;;;;;;;;;;;;;;;8.53;80.11;100242.66;5369677;32;34002;-65
2023/04/16 04:12:48;;;;;;;;;;;;;;;8.77;77.72;100235.72;5359960;32;33921;-76
2023/04/16 04:15:50;;;;;;;;;;;;;;;8.63;78.75;100233.59;5377078;32;34524;-63
2023/04/16 04:18:52;;;;;;;;;;;;;;;8.58;78.97;100232.88;5365149;32;34509;-76
2023/04/16 04:21:54;;;;;;;;;;;;;;;8.61;80.04;100237.16;5373908;32;34023;-64
2023/04/16 04:24:56;;;;;;;;;;;;;;;9.06;78.99;100226.84;5350524;32;33971;-77
2023/04/16 04:27:57;;;;;;;;;;;;;;;8.14;80.80;100239.53;5357836;32;34588;-73
2023/04/16 04:31:00;;;;;;;;;;;;;;;8.43;80.19;100246.47;5328661;32;33223;-76
2023/04/16 04:34:02;;;;;;;;;;;;;;;9.17;77.28;100237.81;5372361;32;34445;-65
2023/04/16 04:37:04;;;;;;;;;;;;;;;8.99;78.14;100246.31;5374852;32;35464;-76
2023/04/16 04:40:06;;;;;;;;;;;;;;;8.54;78.76;100261.84;5374805;32;34970;-77
2023/04/16 04:43:08;;;;;;;;;;;;;;;9.32;77.62;100261.78;5367739;32;34016;-65
2023/04/16 04:46:10;;;;;;;;;;;;;;;9.72;73.72;100250.66;5347917;32;34333;-66
2023/04/16 04:49:12;;;;;;;;;;;;;;;9.39;75.52;100244.91;5354069;32;45719;-65
2023/04/16 04:52:14;;;;;;;;;;;;;;;9.04;77.73;100260.13;5359650;32;35679;-63
2023/04/16 04:55:16;;;;;;;;;;;;;;;8.98;78.00;100257.72;5367719;32;33370;-65
2023/04/16 04:58:17;;;;;;;;;;;;;;;9.55;76.39;100238.19;5375916;32;34014;-64
2023/04/16 05:01:19;;;;;;;;;;;;;;;9.76;73.49;100253.13;5365922;32;34189;-76
2023/04/16 05:04:21;;;;;;;;;;;;;;;9.49;73.40;100257.63;5374499;32;35337;-64
2023/04/16 05:07:23;;;;;;;;;;;;;;;9.38;75.83;100269.44;5354295;32;34822;-63
2023/04/16 05:10:25;;;;;;;;;;;;;;;9.09;76.22;100275.72;5369639;32;35666;-65
2023/04/16 05:13:27;;;;;;;;;;;;;;;9.56;74.82;100267.91;5369031;32;33261;-64
2023/04/16 05:16:29;;;;;;;;;;;;;;;9.42;75.00;100276.28;5364061;32;34505;-65
2023/04/16 05:19:31;;;;;;;;;;;;;;;9.89;74.06;100255.28;5376855;32;34426;-74
2023/04/16 05:22:33;;;;;;;;;;;;;;;9.09;76.21;100266.09;5358074;32;33771;-74
2023/04/16 05:25:35;;;;;;;;;;;;;;;9.54;73.74;100262.72;5360340;32;33400;-77
2023/04/16 05:28:37;;;;;;;;;;;;;;;9.18;76.43;100271.00;5356152;32;34253;-64
2023/04/16 05:31:39;;;;;;;;;;;;;;;9.44;74.39;100269.22;5350553;32;33798;-73
2023/04/16 05:34:41;;;;;;;;;;;;;;;10.22;72.36;100267.09;5367917;32;44619;-76
2023/04/16 05:37:43;;;;;;;;;;;;;;;9.80;73.76;100292.41;5357445;32;33666;-64
2023/04/16 05:40:45;;;;;;;;;;;;;;;10.01;71.98;100286.31;5376768;32;35226;-76
2023/04/16 05:43:47;;;;;;;;;;;;;;;9.84;72.11;100286.09;5360616;32;33980;-76
2023/04/16 05:46:49;;;;;;;;;;;;;;;9.26;74.48;100291.69;5372213;32;34632;-66
2023/04/16 05:49:51;;;;;;;;;;;;;;;9.58;75.35;100287.91;5367161;32;34742;-66
2023/04/16 05:52:52;;;;;;;;;;;;;;;9.72;73.77;100288.28;5360484;32;33930;-77
2023/04/16 05:55:54;;;;;;;;;;;;;;;9.32;74.37;100293.25;5372007;32;34020;-64
2023/04/16 05:58:56;;;;;;;;;;;;;;;9.32;75.76;100307.22;5353793;32;33867;-76
2023/04/16 06:01:59;;;;;;;;;;;;;;;8.94;77.89;100306.75;5372951;32;33381;-77
2023/04/16 06:05:01;;;;;;;;;;;;;;;9.24;76.63;100311.87;5353576;32;33171;-72
2023/04/16 06:08:03;;;;;;;;;;;;;;;9.27;75.76;100317.00;5364746;32;33557;-64
2023/04/16 06:11:05;;;;;;;;;;;;;;;9.42;75.28;100315.63;5368283;32;33864;-75
2023/04/16 06:14:07;;;;;;;;;;;;;;;9.68;74.36;100305.06;5364515;32;34033;-77
2023/04/16 06:17:09;;;;;;;;;;;;;;;9.75;73.82;100301.28;5382111;32;33148;-63
2023/04/16 06:20:11;;;;;;;;;;;;;;;9.39;75.32;100315.72;5371638;32;48251;-75
2023/04/16 06:23:13;;;;;;;;;;;;;;;8.86;77.93;100315.81;5378125;32;33952;-64
2023/04/16 06:26:15;;;;;;;;;;;;;;;9.86;74.16;100290.41;5356109;32;34740;-76
2023/04/16 06:29:17;;;;;;;;;;;;;;;9.77;75.60;100303.84;5351410;32;33190;-66
2023/04/16 06:32:19;;;;;;;;;;;;;;;10.44;73.48;100300.44;5345227;32;36359;-64
2023/04/16 06:35:21;;;;;;;;;;;;;;;10.73;71.52;100300.12;5353436;32;35579;-78
2023/04/16 06:38:23;;;;;;;;;;;;;;;10.97;71.35;100300.88;5369437;32;33674;-77
2023/04/16 06:41:26;;;;;;;;;;;;;;;11.30;68.63;100298.56;5356165;32;35439;-76
2023/04/16 06:44:27;;;;;;;;;;;;;;;10.67;69.68;100296.88;5375127;32;33274;-65
2023/04/16 06:47:29;;;;;;;;;;;;;;;11.23;69.27;100297.13;5359218;32;34368;-65
2023/04/16 06:50:31;;;;;;;;;;;;;;;10.61;69.45;100305.00;5359568;32;33893;-65
2023/04/16 06:53:36;;;;;;;;;;;;;;;11.12;68.28;100302.00;5356106;32;33056;-71
2023/04/16 06:56:38;;;;;;;;;;;;;;;11.35;67.48;100291.34;5361516;32;33389;-77
2023/04/16 06:59:40;;;;;;;;;;;;;;;10.75;69.05;100287.75;5363090;32;33533;-76
2023/04/16 07:02:41;;;;;;;;;;;;;;;11.67;66.95;100283.78;5362446;32;46848;-64
2023/04/16 07:05:44;;;;;;;;;;;;;;;11.18;69.26;100304.38;5375089;32;35460;-64
2023/04/16 07:08:46;;;;;;;;;;;;;;;11.60;66.56;100300.78;5353192;32;34709;-77
2023/04/16 07:11:47;;;;;;;;;;;;;;;12.15;65.70;100304.41;5369279;32;33723;-64
2023/04/16 07:14:49;;;;;;;;;;;;;;;12.19;64.41;100303.34;5352463;32;34009;-73
2023/04/16 07:17:51;;;;;;;;;;;;;;;12.48;63.53;100306.38;5365085;32;33214;-64
2023/04/16 07:20:53;;;;;;;;;;;;;;;12.77;62.80;100298.84;5361032;32;33328;-73
2023/04/16 07:23:55;;;;;;;;;;;;;;;12.58;61.06;100294.47;5354039;32;33927;-63
2023/04/16 07:26:57;;;;;;;;;;;;;;;12.92;60.42;100284.87;5370505;32;33514;-63
2023/04/16 07:29:59;;;;;;;;;;;;;;;13.07;60.46;100297.28;5334831;32;33203;-64
2023/04/16 07:33:02;;;;;;;;;;;;;;;13.83;58.97;100293.28;5363784;32;33904;-63
2023/04/16 07:36:04;;;;;;;;;;;;;;;14.28;56.61;100291.72;5354569;32;33935;-77
2023/04/16 07:39:06;;;;;;;;;;;;;;;13.16;60.24;100303.88;5358246;32;35160;-73
2023/04/16 07:42:08;;;;;;;;;;;;;;;13.01;60.65;100303.75;5367123;32;35819;-77
2023/04/16 07:45:10;;;;;;;;;;;;;;;11.61;65.06;100308.63;5346757;32;34320;-64
2023/04/16 07:48:12;;;;;;;;;;;;;;;12.87;62.18;100290.38;5365385;32;45393;-76
2023/04/16 07:51:14;;;;;;;;;;;;;;;11.34;67.49;100292.28;5343251;32;35624;-64
2023/04/16 07:54:16;;;;;;;;;;;;;;;12.86;62.77;100293.94;5363608;32;34428;-64
2023/04/16 07:57:18;;;;;;;;;;;;;;;12.60;62.27;100305.78;5365577;32;33257;-66
2023/04/16 08:00:20;;;;;;;;;;;;;;;13.06;61.87;100297.34;5364178;32;34597;-76
2023/04/16 08:03:22;;;;;;;;;;;;;;;12.55;62.54;100302.50;5366719;32;32977;-64
2023/04/16 08:06:25;;;;;;;;;;;;;;;13.46;60.12;100302.34;5353873;32;33783;-63
2023/04/16 08:09:27;;;;;;;;;;;;;;;13.47;60.41;100303.19;5362697;32;33683;-64
2023/04/16 08:12:29;;;;;;;;;;;;;;;13.80;59.20;100293.47;5363998;32;34659;-72
2023/04/16 08:15:31;;;;;;;;;;;;;;;13.91;59.53;100292.91;5365795;32;33695;-64
2023/04/16 08:18:33;;;;;;;;;;;;;;;15.20;55.50;100289.09;5359951;32;33592;-72
2023/04/16 08:21:35;;;;;;;;;;;;;;;15.27;54.84;100286.94;5358371;32;32998;-65
2023/04/16 08:24:37;;;;;;;;;;;;;;;15.23;54.92;100296.00;5359923;32;34047;-76
2023/04/16 08:27:39;;;;;;;;;;;;;;;14.03;58.09;100281.63;5363579;32;33763;-78
2023/04/16 08:30:41;;;;;;;;;;;;;;;15.20;54.90;100296.16;5347650;32;46656;-77
2023/04/16 08:33:43;;;;;;;;;;;;;;;14.90;56.20;100302.34;5352915;32;34046;-65
2023/04/16 08:36:45;;;;;;;;;;;;;;;13.44;60.22;100312.13;5358402;32;33922;-64
2023/04/16 08:39:47;;;;;;;;;;;;;;;14.15;58.02;100298.63;5349956;32;33432;-64
2023/04/16 08:42:52;;;;;;;;;;;;;;;15.20;55.49;100296.16;5348625;32;34683;-65
2023/04/16 08:45:55;;;;;;;;;;;;;;;15.50;53.60;100310.22;5374564;32;33367;-79
2023/04/16 08:48:57;;;;;;;;;;;;;;;15.21;54.68;100311.97;5356607;32;34039;-62
2023/04/16 08:51:59;;;;;;;;;;;;;;;16.88;49.81;100288.25;5358861;32;34052;-64
2023/04/16 08:55:01;;;;;;;;;;;;;;;16.64;50.04;100304.81;5345954;32;34049;-79
2023/04/16 08:58:06;;;;;;;;;;;;;;;16.65;50.12;100308.31;5356948;32;34342;-64
2023/04/16 09:01:08;;;;;;;;;;;;;;;14.55;54.63;100322.84;5360951;32;33682;-78
2023/04/16 09:04:10;;;;;;;;;;;;;;;15.45;53.40;100320.22;5363087;32;36461;-76
2023/04/16 09:07:12;;;;;;;;;;;;;;;16.23;50.30;100304.84;5373958;32;35102;-64
2023/04/16 09:10:15;;;;;;;;;;;;;;;16.25;50.22;100311.72;5361950;32;34234;-65
2023/04/16 09:13:19;;;;;;;;;;;;;;;17.57;46.92;100313.59;5375223;32;34097;-76
2023/04/16 09:16:21;;;;;;;;;;;;;;;16.35;49.27;100327.03;5364891;32;33683;-64
2023/04/16 09:19:23;;;;;;;;;;;;;;;16.39;49.45;100315.28;5373213;32;33789;-78
2023/04/16 09:22:25;;;;;;;;;;;;;;;15.80;50.56;100333.19;5360091;32;34828;-74
2023/04/16 09:25:27;;;;;;;;;;;;;;;15.35;52.18;100329.69;5348035;32;34336;-77
2023/04/16 09:28:39;;;;;;;;;;;;;;;14.29;55.62;100341.00;5358469;32;33776;-65
2023/04/16 09:31:41;;;;;;;;;;;;;;;15.86;51.57;100338.94;5327271;32;44694;-65
2023/04/16 09:34:52;;;;;;;;;;;;;;;15.35;53.22;100337.62;5370579;32;34979;-64
2023/04/16 09:37:55;;;;;;;;;;;;;;;15.06;52.82;100316.34;5366046;32;34158;-65
2023/04/16 09:41:07;;;;;;;;;;;;;;;15.07;53.25;100326.03;5364616;32;34328;-78
2023/04/16 09:44:09;;;;;;;;;;;;;;;15.09;53.63;100336.53;5374063;32;33603;-64
2023/04/16 09:47:11;;;;;;;;;;;;;;;15.23;53.69;100336.56;5360155;32;43920;-65
2023/04/16 09:50:17;;;;;;;;;;;;;;;15.49;53.15;100339.44;5369021;32;33792;-66
2023/04/16 09:53:26;;;;;;;;;;;;;;;15.88;52.57;100338.84;5361689;32;34094;-73
2023/04/16 09:56:29;;;;;;;;;;;;;;;15.39;53.65;100347.97;5372552;32;33647;-77
2023/04/16 09:59:32;;;;;;;;;;;;;;;16.30;51.63;100345.06;5367104;32;34376;-78
2023/04/16 10:02:37;;;;;;;;;;;;;;;16.12;52.38;100337.31;5363936;32;33770;-79
2023/04/16 10:05:40;;;;;;;;;;;;;;;17.11;49.43;100332.69;5362853;32;34386;-78
2023/04/16 10:08:42;;;;;;;;;;;;;;;17.78;47.89;100329.91;5354182;32;45004;-78
2023/04/16 10:11:44;;;;;;;;;;;;;;;18.70;45.21;100324.19;5361093;32;33336;-65
2023/04/16 10:14:46;;;;;;;;;;;;;;;18.00;46.67;100318.59;5352862;32;33139;-65
2023/04/16 10:17:51;;;;;;;;;;;;;;;17.55;48.09;100326.16;5380370;32;34096;-79
2023/04/16 10:20:53;;;;;;;;;;;;;;;17.63;47.66;100321.16;5357162;32;34476;-65
2023/04/16 10:23:54;;;;;;;;;;;;;;;18.66;44.90;100301.37;5346815;32;34071;-65
2023/04/16 10:26:57;;;;;;;;;;;;;;;20.07;41.47;100306.56;5369582;32;34046;-64
2023/04/16 10:29:59;;;;;;;;;;;;;;;19.75;42.32;100297.47;5340621;32;33971;-78
2023/04/16 10:33:01;;;;;;;;;;;;;;;21.14;39.73;100295.13;5352733;32;33945;-74
2023/04/16 10:36:08;;;;;;;;;;;;;;;21.95;38.00;100283.59;5352830;32;34591;-65
2023/04/16 10:39:11;;;;;;;;;;;;;;;20.27;39.99;100300.47;5363536;32;45462;-66
2023/04/16 10:42:17;;;;;;;;;;;;;;;19.70;41.54;100293.47;5368659;32;34672;-77
2023/04/16 10:45:20;;;;;;;;;;;;;;;21.59;37.80;100275.16;5351477;32;33956;-64
2023/04/16 10:48:25;;;;;;;;;;;;;;;20.28;40.92;100272.81;5371355;32;34598;-65
2023/04/16 10:51:36;;;;;;;;;;;;;;;20.94;39.10;100284.28;5353030;32;34383;-65
2023/04/16 10:54:38;;;;;;;;;;;;;;;19.15;42.08;100287.91;5371916;32;34638;-78
2023/04/16 10:57:40;;;;;;;;;;;;;;;20.91;39.04;100271.16;5362681;32;37701;-65
2023/04/16 11:00:49;;;;;;;;;;;;;;;21.59;37.58;100263.63;5362529;32;33897;-78
2023/04/16 11:03:51;;;;;;;;;;;;;;;19.85;41.03;100270.09;5376938;32;33302;-64
2023/04/16 11:07:03;;;;;;;;;;;;;;;21.04;38.08;100268.31;5359538;32;34172;-78
2023/04/16 11:10:05;;;;;;;;;;;;;;;20.06;40.62;100268.38;5367134;32;34475;-76
2023/04/16 11:13:08;;;;;;;;;;;;;;;21.78;37.42;100252.16;5352338;32;33194;-64
2023/04/16 11:16:10;;;;;;;;;;;;;;;22.22;36.33;100258.06;5366469;32;45514;-65
2023/04/16 11:19:16;;;;;;;;;;;;;;;22.21;36.38;100265.25;5362881;32;33987;-66
2023/04/16 11:22:18;;;;;;;;;;;;;;;22.28;35.97;100258.38;5353630;32;34700;-65
2023/04/16 11:25:21;;;;;;;;;;;;;;;24.21;32.46;100243.75;5369976;32;33369;-78
2023/04/16 11:28:33;;;;;;;;;;;;;;;21.35;37.36;100271.94;5365909;32;34126;-73
2023/04/16 11:31:35;;;;;;;;;;;;;;;22.74;33.40;100256.03;5348735;32;33233;-78
2023/04/16 11:34:44;;;;;;;;;;;;;;;21.66;34.86;100261.25;5357558;32;33797;-65
2023/04/16 11:37:47;;;;;;;;;;;;;;;20.81;37.87;100262.25;5352618;32;44521;-66
2023/04/16 11:40:50;;;;;;;;;;;;;;;21.17;37.17;100260.94;5380003;32;34118;-77
2023/04/16 11:43:52;;;;;;;;;;;;;;;19.82;40.14;100262.34;5358537;32;34290;-78
2023/04/16 11:46:54;;;;;;;;;;;;;;;21.43;37.23;100260.56;5359042;32;34536;-78
2023/04/16 11:49:57;;;;;;;;;;;;;;;21.18;37.50;100243.09;5345929;32;33886;-66
2023/04/16 11:53:02;;;;;;;;;;;;;;;20.18;36.85;100255.88;5370166;32;33382;-77
2023/04/16 11:56:04;;;;;;;;;;;;;;;19.79;36.18;100268.78;5366225;32;33550;-75
2023/04/16 11:59:09;;;;;;;;;;;;;;;19.99;33.10;100256.50;5365966;32;34603;-65
2023/04/16 12:02:12;;;;;;;;;;;;;;;20.52;32.39;100248.62;5373295;32;45278;-65
2023/04/16 12:05:30;;;;;;;;;;;;;;;21.19;33.14;100247.44;5358865;32;33053;-78
2023/04/16 12:08:32;;;;;;;;;;;;;;;20.56;33.59;100258.09;5371334;32;33754;-75
2023/04/16 12:11:38;;;;;;;;;;;;;;;22.13;31.93;100236.50;5364180;32;33177;-67
2023/04/16 12:14:48;;;;;;;;;;;;;;;20.81;33.34;100254.25;5369644;32;44770;-76
2023/04/16 12:17:53;;;;;;;;;;;;;;;20.14;34.87;100241.91;5371908;32;44834;-64
2023/04/16 12:20:55;;;;;;;;;;;;;;;21.73;32.45;100224.97;5365454;32;34216;-65
2023/04/16 12:23:57;;;;;;;;;;;;;;;22.71;30.31;100217.81;5362425;32;34647;-75
2023/04/16 12:27:01;;;;;;;;;;;;;;;21.33;33.02;100240.00;5350000;32;33767;-65
2023/04/16 12:30:06;;;;;;;;;;;;;;;20.77;34.34;100234.09;5343605;32;34696;-65
2023/04/16 12:33:15;;;;;;;;;;;;;;;20.27;35.09;100231.94;5350917;32;33929;-64
2023/04/16 12:36:17;;;;;;;;;;;;;;;21.59;33.04;100228.84;5355145;32;47488;-64
2023/04/16 12:39:19;;;;;;;;;;;;;;;20.78;34.29;100228.62;5370214;32;34468;-64
2023/04/16 12:42:21;;;;;;;;;;;;;;;21.13;33.83;100223.94;5365783;32;35400;-64
2023/04/16 12:45:23;;;;;;;;;;;;;;;20.64;34.50;100202.22;5363780;32;34517;-64
2023/04/16 12:48:25;;;;;;;;;;;;;;;21.21;33.99;100224.97;5363055;32;34700;-74
2023/04/16 12:51:27;;;;;;;;;;;;;;;20.76;34.37;100211.88;5355795;32;33912;-78
2023/04/16 12:54:30;;;;;;;;;;;;;;;20.61;35.19;100214.97;5351043;32;34943;-64
2023/04/16 12:57:32;;;;;;;;;;;;;;;21.33;33.38;100196.37;5349156;32;33202;-66
2023/04/16 13:00:33;;;;;;;;;;;;;;;19.77;36.31;100209.34;5359023;32;33766;-74
2023/04/16 13:03:35;;;;;;;;;;;;;;;19.53;36.76;100206.81;5346699;32;33263;-73
2023/04/16 13:06:38;;;;;;;;;;;;;;;20.19;35.20;100209.53;5369430;32;34482;-77
2023/04/16 13:09:41;;;;;;;;;;;;;;;20.26;35.36;100214.22;5347255;32;43781;-77
2023/04/16 13:12:43;;;;;;;;;;;;;;;20.24;35.26;100204.66;5356109;32;33798;-65
2023/04/16 13:15:45;;;;;;;;;;;;;;;20.23;35.02;100205.66;5352651;32;34325;-79
2023/04/16 13:18:47;;;;;;;;;;;;;;;19.13;37.10;100198.44;5358210;32;33675;-65
2023/04/16 13:21:48;;;;;;;;;;;;;;;19.38;36.75;100202.69;5358733;32;33994;-64
2023/04/16 13:24:50;;;;;;;;;;;;;;;19.59;35.61;100192.19;5357178;32;34153;-65
2023/04/16 13:27:52;;;;;;;;;;;;;;;18.91;37.51;100197.41;5374742;32;33877;-78
2023/04/16 13:30:57;;;;;;;;;;;;;;;19.24;38.31;100184.25;5342087;32;35546;-65
2023/04/16 13:33:59;;;;;;;;;;;;;;;20.54;36.33;100188.81;5353394;32;34596;-63
2023/04/16 13:37:01;;;;;;;;;;;;;;;19.73;36.05;100187.44;5366788;32;34730;-64
2023/04/16 13:40:03;;;;;;;;;;;;;;;19.34;37.68;100186.09;5356515;32;33037;-65
2023/04/16 13:43:05;;;;;;;;;;;;;;;18.96;38.86;100191.75;5366047;32;33767;-78
2023/04/16 13:46:08;;;;;;;;;;;;;;;19.77;37.39;100176.50;5358592;32;34413;-79
2023/04/16 13:49:10;;;;;;;;;;;;;;;19.27;38.58;100189.37;5372891;32;36814;-65
2023/04/16 13:52:12;;;;;;;;;;;;;;;18.58;40.04;100178.66;5356322;32;33708;-79
2023/04/16 13:55:17;;;;;;;;;;;;;;;19.03;38.57;100170.81;5367535;32;34548;-65
2023/04/16 13:58:20;;;;;;;;;;;;;;;19.20;38.16;100170.34;5358367;32;33711;-79
2023/04/16 14:01:22;;;;;;;;;;;;;;;18.77;39.28;100175.47;5361480;32;34009;-65
2023/04/16 14:04:24;;;;;;;;;;;;;;;19.53;37.70;100171.31;5372891;32;33979;-64
2023/04/16 14:07:26;;;;;;;;;;;;;;;18.69;39.11;100170.75;5365785;32;33194;-72
2023/04/16 14:10:28;;;;;;;;;;;;;;;19.19;38.03;100166.84;5381383;32;34309;-77
2023/04/16 14:13:30;;;;;;;;;;;;;;;18.75;39.18;100175.59;5357868;32;34141;-78
2023/04/16 14:16:32;;;;;;;;;;;;;;;19.13;38.00;100171.81;5358549;32;33280;-75
2023/04/16 14:19:34;;;;;;;;;;;;;;;18.22;40.01;100175.13;5362126;32;33303;-65
2023/04/16 14:22:36;;;;;;;;;;;;;;;18.26;39.82;100176.59;5348791;32;33782;-64
2023/04/16 14:25:38;;;;;;;;;;;;;;;18.45;39.52;100172.56;5367021;32;33918;-79
2023/04/16 14:28:40;;;;;;;;;;;;;;;18.47;39.44;100173.28;5356264;32;43150;-66
2023/04/16 14:31:42;;;;;;;;;;;;;;;18.45;39.03;100175.22;5341137;32;34480;-78
2023/04/16 14:34:44;;;;;;;;;;;;;;;18.09;38.98;100159.22;5358234;32;35103;-64
2023/04/16 14:37:46;;;;;;;;;;;;;;;17.65;39.94;100156.28;5355464;32;33531;-78
2023/04/16 14:40:48;;;;;;;;;;;;;;;18.50;38.57;100167.75;5365390;32;34307;-66
2023/04/16 14:43:50;;;;;;;;;;;;;;;18.74;37.91;100162.37;5357331;32;35193;-78
2023/04/16 14:46:52;;;;;;;;;;;;;;;18.72;37.26;100161.66;5359037;32;34148;-73
2023/04/16 14:49:54;;;;;;;;;;;;;;;18.56;37.04;100152.16;5360745;32;35159;-64
2023/04/16 14:52:56;;;;;;;;;;;;;;;19.06;36.14;100149.25;5364188;32;34344;-73
2023/04/16 14:55:58;;;;;;;;;;;;;;;18.30;37.46;100155.94;5359640;32;34383;-64
2023/04/16 14:59:00;;;;;;;;;;;;;;;19.17;35.13;100152.78;5363887;32;34026;-63
2023/04/16 15:02:02;;;;;;;;;;;;;;;18.51;35.75;100151.66;5371630;32;33262;-64
2023/04/16 15:05:06;;;;;;;;;;;;;;;18.75;35.79;100161.44;5358900;32;33599;-72
2023/04/16 15:08:08;;;;;;;;;;;;;;;18.63;35.74;100153.41;5362728;32;33674;-64
2023/04/16 15:11:10;;;;;;;;;;;;;;;18.22;36.17;100151.19;5358882;32;46427;-65
2023/04/16 15:14:12;;;;;;;;;;;;;;;19.19;34.83;100144.66;5367123;32;34849;-63
2023/04/16 15:17:14;;;;;;;;;;;;;;;18.60;35.40;100147.44;5356516;32;36034;-78
2023/04/16 15:20:16;;;;;;;;;;;;;;;18.45;35.53;100149.47;5373540;32;34540;-64
2023/04/16 15:23:18;;;;;;;;;;;;;;;19.59;33.49;100138.87;5360087;32;33996;-64
2023/04/16 15:26:20;;;;;;;;;;;;;;;19.44;34.19;100144.41;5359588;32;33664;-77
2023/04/16 15:29:22;;;;;;;;;;;;;;;19.00;33.84;100144.41;5366313;32;33451;-80
2023/04/16 15:32:24;;;;;;;;;;;;;;;18.41;35.42;100148.84;5340821;32;33362;-74
2023/04/16 15:35:26;;;;;;;;;;;;;;;19.28;34.25;100146.59;5367327;32;33298;-65
2023/04/16 15:38:29;;;;;;;;;;;;;;;19.19;33.96;100150.84;5361165;32;34015;-64
2023/04/16 15:41:33;;;;;;;;;;;;;;;18.16;35.02;100140.16;5358624;32;33607;-65